createdAt,value
2023-01-18T05:02:15.951Z,13.30
2023-01-18T05:05:18.573Z,13.55
2023-01-18T05:08:20.742Z,14.13
2023-01-18T05:11:23.273Z,15.05
2023-01-18T05:14:25.370Z,11.90
2023-01-18T05:17:30.386Z,9.45
2023-01-18T05:20:32.481Z,7.72
2023-01-18T05:23:34.865Z,8.57
2023-01-18T05:26:37.022Z,8.43
2023-01-18T05:29:39.539Z,8.07
2023-01-18T05:32:41.634Z,8.55
2023-01-18T05:35:52.982Z,7.20
2023-01-18T05:38:55.088Z,6.87
2023-01-18T05:42:00.037Z,7.28
2023-01-18T05:45:02.325Z,9.10
2023-01-18T05:48:04.998Z,6.07
2023-01-18T05:51:09.302Z,4.97
2023-01-18T05:54:12.017Z,4.78
2023-01-18T05:57:14.378Z,2.58
2023-01-18T06:00:17.098Z,1.67
2023-01-18T06:03:19.570Z,2.17
2023-01-18T06:06:21.791Z,2.35
2023-01-18T06:09:24.203Z,2.95
2023-01-18T06:12:26.425Z,1.83
2023-01-18T06:15:28.821Z,2.47
2023-01-18T06:18:32.893Z,2.92
2023-01-18T06:21:35.314Z,1.87
2023-01-18T06:24:37.393Z,2.85
2023-01-18T06:27:39.822Z,2.78
2023-01-18T06:30:42.813Z,2.53
2023-01-18T06:33:45.459Z,3.95
2023-01-18T06:36:47.632Z,7.15
2023-01-18T06:39:50.031Z,3.97
2023-01-18T06:42:52.182Z,4.37
2023-01-18T06:45:56.212Z,4.60
2023-01-18T06:48:58.393Z,3.08
2023-01-18T06:52:00.848Z,4.60
2023-01-18T06:55:03.302Z,3.75
2023-01-18T06:58:05.669Z,4.90
2023-01-18T07:01:08.319Z,4.80
2023-01-18T07:04:10.971Z,6.22
2023-01-18T07:07:14.302Z,5.30
2023-01-18T07:10:16.987Z,6.82
2023-01-18T07:13:19.794Z,4.68
2023-01-18T07:16:22.283Z,4.55
2023-01-18T07:19:24.433Z,6.25
2023-01-18T07:22:26.820Z,5.05
2023-01-18T07:25:29.495Z,7.37
2023-01-18T07:28:33.174Z,5.60
2023-01-18T07:31:38.113Z,7.05
2023-01-18T07:34:40.820Z,7.12
2023-01-18T07:37:43.373Z,6.40
2023-01-18T07:40:46.964Z,6.15
2023-01-18T07:43:49.335Z,4.43
2023-01-18T07:46:51.682Z,4.53
2023-01-18T07:49:53.758Z,5.65
2023-01-18T07:52:56.748Z,5.57
2023-01-18T07:56:00.829Z,6.20
2023-01-18T07:59:03.335Z,6.97
2023-01-18T08:02:08.717Z,4.68
2023-01-18T08:05:11.594Z,7.03
2023-01-18T08:08:15.789Z,5.62
2023-01-18T08:11:19.306Z,5.15
2023-01-18T08:14:21.441Z,3.58
2023-01-18T08:17:23.947Z,3.22
2023-01-18T08:20:26.105Z,5.30
2023-01-18T08:23:28.863Z,3.92
2023-01-18T08:26:31.996Z,2.90
2023-01-18T08:29:34.383Z,3.28
2023-01-18T08:32:37.754Z,3.50
2023-01-18T08:35:42.625Z,2.35
2023-01-18T08:38:59.335Z,1.85
2023-01-18T08:42:01.925Z,1.87
2023-01-18T08:45:05.250Z,1.27
2023-01-18T08:48:10.664Z,1.60
2023-01-18T08:51:12.829Z,2.22
2023-01-18T08:54:15.236Z,1.90
2023-01-18T08:57:17.311Z,2.17
2023-01-18T09:00:20.120Z,4.12
2023-01-18T09:03:22.306Z,2.67
2023-01-18T09:06:25.242Z,2.03
2023-01-18T09:09:27.371Z,1.67
2023-01-18T09:12:31.505Z,1.83
2023-01-18T09:15:34.944Z,1.40
2023-01-18T09:18:38.301Z,1.15
2023-01-18T09:21:40.432Z,1.60
2023-01-18T09:24:42.964Z,2.00
2023-01-18T09:27:46.539Z,2.00
2023-01-18T09:30:49.381Z,3.72
2023-01-18T09:33:53.865Z,2.53
2023-01-18T09:36:56.645Z,2.37
2023-01-18T09:40:00.229Z,1.70
2023-01-18T09:43:03.340Z,1.83
2023-01-18T09:46:17.066Z,3.05
2023-01-18T09:49:27.706Z,4.53
2023-01-18T09:52:32.604Z,2.97
2023-01-18T09:55:56.762Z,3.97
2023-01-18T09:59:21.626Z,2.62
2023-01-18T10:02:29.363Z,3.95
2023-01-18T10:05:37.405Z,2.62
2023-01-18T10:08:53.219Z,2.95
2023-01-18T10:12:14.905Z,3.45
2023-01-18T10:15:20.566Z,4.05
2023-01-18T10:18:24.214Z,5.70
2023-01-18T10:21:56.230Z,4.97
2023-01-18T10:25:01.567Z,5.32
2023-01-18T10:28:06.410Z,7.03
2023-01-18T10:31:26.737Z,6.05
2023-01-18T10:34:34.916Z,5.30
2023-01-18T10:37:45.264Z,5.20
2023-01-18T10:41:05.822Z,5.18
2023-01-18T10:44:09.328Z,4.00
2023-01-18T10:47:12.065Z,4.37
2023-01-18T10:50:39.821Z,3.85
2023-01-18T10:53:42.014Z,3.70
2023-01-18T10:56:45.065Z,4.20
2023-01-18T10:59:50.870Z,4.18
2023-01-18T11:02:55.857Z,3.17
2023-01-18T11:06:07.250Z,4.03
2023-01-18T11:09:48.543Z,5.37
2023-01-18T11:12:52.210Z,3.58
2023-01-18T11:16:13.734Z,3.55
2023-01-18T11:19:19.870Z,3.97
2023-01-18T11:22:24.331Z,5.50
2023-01-18T11:25:34.758Z,3.67
2023-01-18T11:29:00.520Z,4.12
2023-01-18T11:32:06.588Z,4.28
2023-01-18T11:38:18.726Z,4.47
2023-01-18T11:41:23.290Z,4.72
2023-01-18T11:44:30.192Z,3.70
2023-01-18T11:48:11.192Z,4.60
2023-01-18T11:51:38.898Z,5.65
2023-01-18T11:54:53.214Z,4.18
2023-01-18T11:57:55.373Z,3.70
2023-01-18T12:01:32.770Z,4.20
2023-01-18T12:04:57.298Z,5.28
2023-01-18T12:08:29.448Z,4.25
2023-01-18T12:11:45.705Z,3.72
2023-01-18T12:15:06.267Z,4.18
2023-01-18T12:18:30.214Z,3.87
2023-01-18T12:21:46.047Z,5.32
2023-01-18T12:25:10.613Z,4.47
2023-01-18T12:28:25.083Z,2.33
2023-01-18T12:32:04.461Z,3.90
2023-01-18T12:35:23.357Z,3.92
2023-01-18T12:38:33.867Z,3.30
2023-01-18T12:41:51.645Z,4.85
2023-01-18T12:45:12.378Z,3.17
2023-01-18T12:48:45.785Z,2.65
2023-01-18T12:51:54.153Z,3.17
2023-01-18T12:55:04.095Z,4.32
2023-01-18T12:58:08.960Z,3.72
2023-01-18T13:01:18.939Z,4.03
2023-01-18T13:04:27.861Z,3.12
2023-01-18T13:07:38.875Z,4.30
2023-01-18T13:10:42.146Z,4.07
2023-01-18T13:13:45.475Z,5.60
2023-01-18T13:17:01.438Z,3.87
2023-01-18T13:20:12.584Z,4.53
2023-01-18T13:23:32.232Z,4.87
2023-01-18T13:26:35.719Z,3.97
2023-01-18T13:29:39.811Z,4.50
2023-01-18T13:32:45.008Z,5.85
2023-01-18T13:36:01.604Z,5.67
2023-01-18T13:42:24.858Z,11.35
2023-01-18T13:45:29.752Z,7.68
2023-01-18T13:48:47.392Z,9.18
2023-01-18T13:51:54.038Z,5.28
2023-01-18T13:54:58.193Z,5.12
2023-01-18T13:58:01.880Z,6.00
2023-01-18T14:01:07.918Z,6.15
2023-01-18T14:04:31.827Z,7.45
2023-01-18T14:07:44.244Z,4.22
2023-01-18T14:10:49.054Z,6.70
2023-01-18T14:13:51.076Z,3.87
2023-01-18T14:17:16.718Z,4.03
2023-01-18T14:20:55.454Z,2.87
2023-01-18T14:24:12.301Z,3.92
2023-01-18T14:27:18.003Z,3.62
2023-01-18T14:30:35.640Z,3.12
2023-01-18T14:33:41.257Z,5.65
2023-01-18T14:36:44.053Z,4.70
2023-01-18T14:39:46.130Z,4.35
2023-01-18T14:42:52.316Z,5.00
2023-01-18T14:46:02.336Z,5.60
2023-01-18T14:49:04.769Z,4.55
2023-01-18T14:52:08.638Z,3.15
2023-01-18T14:55:28.486Z,6.00
2023-01-18T14:58:35.675Z,8.25
2023-01-18T15:01:40.146Z,5.18
2023-01-18T15:04:45.603Z,4.70
2023-01-18T15:07:54.007Z,4.17
2023-01-18T15:10:57.665Z,6.10
2023-01-18T15:14:00.491Z,4.55
2023-01-18T15:17:07.816Z,5.22
2023-01-18T15:20:15.040Z,6.25
2023-01-18T15:23:17.533Z,6.25
2023-01-18T15:26:34.250Z,8.85
2023-01-18T15:32:39.346Z,6.55
2023-01-18T15:35:41.792Z,10.32
2023-01-18T15:38:44.585Z,5.87
2023-01-18T15:41:46.778Z,9.25
2023-01-18T15:44:52.754Z,7.43
2023-01-18T15:47:58.891Z,8.02
2023-01-18T15:51:08.445Z,7.53
2023-01-18T15:54:19.459Z,6.15
2023-01-18T15:57:22.674Z,7.87
2023-01-18T16:00:41.055Z,10.35
2023-01-18T16:03:49.397Z,12.82
2023-01-18T16:06:51.471Z,13.40
2023-01-18T16:10:28.069Z,18.60
2023-01-18T16:13:38.413Z,13.95
2023-01-18T16:16:42.238Z,14.55
2023-01-18T16:19:50.426Z,15.57
2023-01-18T16:23:02.803Z,14.87
2023-01-18T16:26:05.499Z,12.80
2023-01-18T16:29:09.023Z,11.70
2023-01-18T16:32:23.108Z,9.85
2023-01-18T16:35:25.461Z,8.30
2023-01-18T16:38:27.536Z,8.38
2023-01-18T16:41:31.990Z,13.15
2023-01-18T16:44:34.258Z,12.50
2023-01-18T16:47:36.719Z,9.85
2023-01-18T16:50:38.797Z,9.32
2023-01-18T16:53:41.250Z,11.55
2023-01-18T16:56:46.543Z,11.50
2023-01-18T16:59:50.008Z,10.53
2023-01-18T17:02:53.322Z,12.37
2023-01-18T17:05:55.861Z,11.88
2023-01-18T17:08:57.930Z,10.32
2023-01-18T17:12:00.469Z,8.77
2023-01-18T17:15:02.585Z,10.13
2023-01-18T17:18:05.302Z,12.13
2023-01-18T17:21:10.181Z,16.50
2023-01-18T17:24:12.696Z,9.85
2023-01-18T17:27:14.854Z,9.07
2023-01-18T17:30:21.037Z,12.20
2023-01-18T17:33:25.231Z,12.40
2023-01-18T17:36:27.672Z,11.12
2023-01-18T17:39:43.282Z,14.30
2023-01-18T17:42:52.837Z,11.48
2023-01-18T17:46:01.396Z,13.52
2023-01-18T17:49:04.747Z,11.85
2023-01-18T17:52:07.280Z,17.10
2023-01-18T17:55:15.294Z,13.23
2023-01-18T17:58:18.565Z,17.50
2023-01-18T18:01:21.340Z,17.75
2023-01-18T18:04:23.821Z,19.40
